Skip Navigation Links
NOAA logo - Click to go to the NOAA homepage
NOAA's National Weather Service
Alaska Aviation Weather Unit
  NWS logo - Click to go to the NWS homepage
Left Navbar Graphic     02 AKDT = 10 GMT

   
NOAA is celebrating 200 years of science, service, and stewardship. Visit the NOAA 200th celebration Web site to learn more.
USA.gov is the U.S. Government's official Web portal to all Federal, state and local government Web resources and services.
Facebook
NWS on Facebook

AAWU Home :: Display TAF Add Bookmark
TAF PAMC 270520Z 2706/2806 02009KT P6SM SKC
     FM271800 01003KT P6SM SCT100 SCT200
     FM272200 02007KT P6SM FEW050 SCT100 BKN200=
METAR PAMC 270453Z AUTO 02009KT 10SM CLR M06/M18 A2975 RMK AO2 SLP086
     T10611178 TSNO=

METAR PAMC 270553Z AUTO 03006KT 10SM CLR M08/M18 A2975 RMK AO2 SLP086
     T10781183 11039 21078 55002 TSNO=

METAR PAMC 270653Z AUTO 02007KT 10SM CLR M08/M19 A2975 RMK AO2
 SLP084 T10831189 TSNO=

METAR PAMC 270753Z AUTO 02004KT 10SM CLR M10/M19 A2975 RMK AO2 SLP084
     T11001189 TSNO=

METAR PAMC 270853Z AUTO 34003KT 10SM CLR M16/M21 A2974 RMK AO2 SLP082
     T11561206 410391261 58004 TSNO=

METAR PAMC 270953Z AUTO 34004KT 10SM CLR M16/M21 A2974 RMK AO2 SLP079
     T11561211 TSNO=


NOAA's National Weather Service
Alaska Aviation Weather Unit
6930 Sand Lake Road
Anchorage, AK 99502-1845
Disclaimer
Credits
Glossary
Privacy Policy
About Us
Career Opportunities
Contact AAWU Internet Services Site last modified: April, 17th 2012